createdAt,value
2023-11-12T00:01:15.065Z,0.00
2023-11-12T00:03:45.539Z,0.00
2023-11-12T00:06:13.979Z,0.10
2023-11-12T00:08:42.108Z,0.00
2023-11-12T00:11:10.146Z,0.65
2023-11-12T00:13:37.678Z,0.75
2023-11-12T00:16:05.873Z,0.13
2023-11-12T00:18:35.468Z,0.03
2023-11-12T00:21:03.183Z,0.00
2023-11-12T00:23:42.875Z,0.00
2023-11-12T00:26:11.478Z,0.00
2023-11-12T00:28:42.108Z,0.00
2023-11-12T00:31:09.839Z,0.17
2023-11-12T00:33:39.592Z,0.00
2023-11-12T00:36:09.438Z,0.30
2023-11-12T00:38:37.745Z,0.00
2023-11-12T00:41:07.385Z,0.00
2023-11-12T00:43:35.752Z,0.00
2023-11-12T00:46:05.457Z,0.00
2023-11-12T00:48:34.515Z,0.93
2023-11-12T00:51:02.498Z,0.68
2023-11-12T00:53:31.857Z,0.00
2023-11-12T00:56:02.493Z,0.00
2023-11-12T00:58:30.582Z,0.00
2023-11-12T01:00:58.352Z,4.90
2023-11-12T01:03:30.326Z,0.08
2023-11-12T01:05:58.225Z,0.00
2023-11-12T01:08:25.746Z,0.00
2023-11-12T01:10:56.552Z,0.37
2023-11-12T01:13:24.638Z,0.10
2023-11-12T01:15:53.091Z,0.00
2023-11-12T01:18:22.443Z,0.10
2023-11-12T01:20:51.797Z,0.00
2023-11-12T01:23:19.553Z,0.00
2023-11-12T01:25:48.496Z,0.00
2023-11-12T01:28:16.679Z,0.00
2023-11-12T01:30:44.217Z,0.20
2023-11-12T01:33:12.652Z,0.05
2023-11-12T01:35:41.201Z,0.00
2023-11-12T01:38:08.609Z,0.00
2023-11-12T01:40:41.105Z,0.85
2023-11-12T01:43:09.488Z,0.00
2023-11-12T01:45:37.650Z,0.00
2023-11-12T01:48:06.419Z,0.00
2023-11-12T01:50:35.238Z,0.00
2023-11-12T01:53:03.138Z,0.00
2023-11-12T01:55:32.129Z,0.00
2023-11-12T01:58:02.060Z,0.08
2023-11-12T02:00:29.943Z,1.48
2023-11-12T02:02:59.416Z,0.00
2023-11-12T02:05:27.192Z,0.00
2023-11-12T02:08:01.948Z,0.00
2023-11-12T02:10:36.654Z,0.00
2023-11-12T02:13:05.800Z,0.00
2023-11-12T02:15:37.195Z,0.25
2023-11-12T02:18:05.047Z,0.10
2023-11-12T02:20:33.316Z,0.00
2023-11-12T02:23:01.324Z,0.00
2023-11-12T02:25:58.720Z,0.00
2023-11-12T02:28:26.510Z,0.00
2023-11-12T02:30:56.934Z,0.03
2023-11-12T02:33:29.161Z,0.00
2023-11-12T02:38:25.734Z,0.00
2023-11-12T02:40:53.368Z,0.00
2023-11-12T02:43:21.438Z,0.10
2023-11-12T02:45:50.642Z,0.43
2023-11-12T02:48:18.675Z,0.00
2023-11-12T02:50:46.964Z,0.82
2023-11-12T02:53:14.718Z,0.00
2023-11-12T02:55:43.209Z,0.20
2023-11-12T02:58:11.668Z,0.00
2023-11-12T03:00:40.169Z,0.00
2023-11-12T03:03:07.933Z,0.00
2023-11-12T03:05:35.768Z,0.10
2023-11-12T03:08:03.989Z,0.60
2023-11-12T03:10:31.732Z,0.00
2023-11-12T03:13:00.973Z,0.00
2023-11-12T03:15:29.400Z,0.00
2023-11-12T03:17:57.360Z,0.00
2023-11-12T03:20:24.886Z,1.37
2023-11-12T03:22:54.897Z,0.00
2023-11-12T03:25:22.832Z,0.55
2023-11-12T03:27:50.672Z,0.00
2023-11-12T03:30:19.168Z,0.20
2023-11-12T03:32:47.361Z,0.20
2023-11-12T03:35:16.350Z,0.47
2023-11-12T03:37:44.647Z,0.22
2023-11-12T03:40:12.612Z,0.00
2023-11-12T03:42:40.767Z,0.10
2023-11-12T03:45:27.743Z,0.00
2023-11-12T03:47:57.503Z,0.00
2023-11-12T03:50:26.765Z,3.03
2023-11-12T03:52:54.668Z,0.00
2023-11-12T03:55:23.458Z,0.00
2023-11-12T03:57:51.417Z,0.00
2023-11-12T04:00:19.455Z,0.00
2023-11-12T04:02:50.032Z,0.00
2023-11-12T04:05:17.762Z,0.00
2023-11-12T04:07:45.908Z,0.00
2023-11-12T04:10:14.546Z,0.98
2023-11-12T04:12:42.672Z,0.00
2023-11-12T04:15:10.465Z,1.20
2023-11-12T04:17:39.300Z,0.00
2023-11-12T04:20:08.902Z,1.87
2023-11-12T04:22:37.437Z,0.00
2023-11-12T04:25:05.995Z,0.00
2023-11-12T04:27:33.556Z,0.10
2023-11-12T04:30:01.991Z,0.10
2023-11-12T04:32:29.959Z,0.62
2023-11-12T04:34:57.405Z,0.37
2023-11-12T04:37:26.868Z,0.00
2023-11-12T04:39:54.889Z,0.10
2023-11-12T04:42:23.407Z,0.00
2023-11-12T04:44:51.258Z,0.00
2023-11-12T04:47:20.024Z,0.05
2023-11-12T04:49:47.723Z,0.20
2023-11-12T04:52:15.979Z,0.00
2023-11-12T04:54:48.958Z,0.00
2023-11-12T04:57:18.669Z,0.00
2023-11-12T04:59:46.875Z,0.03
2023-11-12T05:02:15.432Z,0.00
2023-11-12T05:04:45.130Z,0.00
2023-11-12T05:07:36.550Z,0.75
2023-11-12T05:10:06.395Z,0.00
2023-11-12T05:12:34.884Z,0.00
2023-11-12T05:15:02.600Z,0.00
2023-11-12T05:17:31.183Z,0.40
2023-11-12T05:19:59.135Z,0.00
2023-11-12T05:22:26.749Z,0.03
2023-11-12T05:24:55.198Z,0.20
2023-11-12T05:27:23.323Z,0.52
2023-11-12T05:29:53.447Z,0.00
2023-11-12T05:32:21.521Z,0.00
2023-11-12T05:34:49.689Z,0.25
2023-11-12T05:37:17.690Z,0.05
2023-11-12T05:39:45.574Z,0.00
2023-11-12T05:42:13.654Z,0.03
2023-11-12T05:44:41.102Z,0.20
2023-11-12T05:47:09.004Z,0.00
2023-11-12T05:49:36.953Z,1.75
2023-11-12T05:52:04.937Z,0.10
2023-11-12T05:54:32.923Z,0.00
2023-11-12T05:57:01.863Z,0.00
2023-11-12T05:59:29.595Z,0.00
2023-11-12T06:01:57.056Z,0.15
2023-11-12T06:04:25.213Z,0.10
2023-11-12T06:06:53.026Z,0.00
2023-11-12T06:09:21.085Z,0.00
2023-11-12T06:12:05.941Z,0.20
2023-11-12T06:14:34.340Z,0.43
2023-11-12T06:17:02.345Z,0.00
2023-11-12T06:19:30.052Z,0.00
2023-11-12T06:21:58.337Z,0.00
2023-11-12T06:24:26.597Z,0.00
2023-11-12T06:26:54.617Z,0.08
2023-11-12T06:29:22.308Z,0.00
2023-11-12T06:31:50.110Z,0.00
2023-11-12T06:34:20.130Z,0.05
2023-11-12T06:36:48.094Z,0.40
2023-11-12T06:39:15.961Z,0.00
2023-11-12T06:41:43.921Z,0.00
2023-11-12T06:44:16.612Z,0.00
2023-11-12T06:46:46.363Z,1.45
2023-11-12T06:49:14.725Z,0.00
2023-11-12T06:51:43.628Z,0.05
2023-11-12T06:54:12.286Z,0.00
2023-11-12T06:56:40.473Z,0.10
2023-11-12T06:59:08.357Z,1.35
2023-11-12T07:01:37.937Z,0.00
2023-11-12T07:04:06.505Z,0.00
2023-11-12T07:06:34.736Z,0.15
2023-11-12T07:09:02.477Z,0.40
2023-11-12T07:11:30.026Z,0.35
2023-11-12T07:13:58.032Z,0.28
2023-11-12T07:16:28.803Z,0.08
2023-11-12T07:18:59.384Z,0.20
2023-11-12T07:21:29.261Z,0.10
2023-11-12T07:23:57.686Z,0.28
2023-11-12T07:26:26.034Z,0.00
2023-11-12T07:28:55.152Z,0.00
2023-11-12T07:31:25.878Z,0.28
2023-11-12T07:33:53.909Z,0.00
2023-11-12T07:36:25.528Z,0.30
2023-11-12T07:38:53.203Z,0.37
2023-11-12T07:41:21.228Z,1.10
2023-11-12T07:43:48.741Z,0.20
2023-11-12T07:46:16.846Z,0.25
2023-11-12T07:48:45.327Z,0.00
2023-11-12T07:51:16.345Z,0.00
2023-11-12T07:54:07.162Z,0.00
2023-11-12T07:56:41.538Z,0.32
2023-11-12T07:59:10.617Z,0.00
2023-11-12T08:01:38.348Z,0.45
2023-11-12T08:04:09.564Z,0.20
2023-11-12T08:06:37.694Z,0.13
2023-11-12T08:09:05.437Z,0.08
2023-11-12T08:11:40.492Z,0.08
2023-11-12T08:14:10.330Z,0.00
2023-11-12T08:16:38.579Z,0.08
2023-11-12T08:19:07.337Z,0.32
2023-11-12T08:21:35.527Z,0.10
2023-11-12T08:24:04.828Z,0.00
2023-11-12T08:26:33.719Z,1.35
2023-11-12T08:29:01.379Z,0.32
2023-11-12T08:31:29.345Z,0.00
2023-11-12T08:33:56.807Z,0.00
2023-11-12T08:36:24.299Z,0.32
2023-11-12T08:38:52.288Z,0.08
2023-11-12T08:41:20.303Z,0.08
2023-11-12T08:43:48.113Z,4.68
2023-11-12T08:46:17.045Z,0.93
2023-11-12T08:48:45.240Z,0.00
2023-11-12T08:51:13.481Z,0.03
2023-11-12T08:53:42.489Z,2.90
2023-11-12T08:56:10.114Z,0.00
2023-11-12T08:58:37.614Z,0.50
2023-11-12T09:01:10.095Z,0.08
2023-11-12T09:03:38.507Z,0.00
2023-11-12T09:06:07.340Z,0.00
2023-11-12T09:08:34.876Z,0.20
2023-11-12T09:11:02.887Z,0.00
2023-11-12T09:13:33.911Z,0.32
2023-11-12T09:16:01.492Z,0.13
2023-11-12T09:18:29.108Z,0.00
2023-11-12T09:20:57.803Z,0.37
2023-11-12T09:23:25.809Z,0.08
2023-11-12T09:25:53.396Z,0.00
2023-11-12T09:28:21.241Z,0.00
2023-11-12T09:30:57.548Z,1.30
2023-11-12T09:33:28.757Z,0.50
2023-11-12T09:35:56.346Z,3.62
2023-11-12T09:38:23.786Z,0.10
2023-11-12T09:40:54.679Z,0.10
2023-11-12T09:43:26.284Z,0.03
2023-11-12T09:46:00.570Z,0.55
2023-11-12T09:48:36.857Z,0.00
2023-11-12T09:51:06.811Z,0.00
2023-11-12T09:53:35.328Z,0.50
2023-11-12T09:56:10.520Z,0.30
2023-11-12T09:58:43.497Z,0.00
2023-11-12T10:01:15.201Z,0.28
2023-11-12T10:03:49.205Z,0.65
2023-11-12T10:06:18.231Z,0.95
2023-11-12T10:08:46.567Z,0.10
2023-11-12T10:11:16.256Z,0.00
2023-11-12T10:13:44.855Z,0.10
2023-11-12T10:16:31.097Z,1.75
2023-11-12T10:19:15.489Z,0.60
2023-11-12T10:21:58.241Z,0.40
2023-11-12T10:24:29.920Z,1.10
2023-11-12T10:27:06.388Z,0.00
2023-11-12T10:29:34.086Z,0.00
2023-11-12T10:32:02.033Z,0.00
2023-11-12T10:34:29.772Z,0.22
2023-11-12T10:37:15.540Z,0.98
2023-11-12T10:39:45.271Z,0.00
2023-11-12T10:42:25.822Z,0.00
2023-11-12T10:44:59.417Z,4.75
2023-11-12T10:47:28.800Z,0.00
2023-11-12T10:49:57.179Z,0.08
2023-11-12T10:52:24.933Z,0.00
2023-11-12T10:54:52.998Z,0.50
2023-11-12T10:57:24.650Z,0.20
2023-11-12T10:59:53.025Z,0.37
2023-11-12T11:02:23.133Z,0.10
2023-11-12T11:04:50.689Z,0.25
2023-11-12T11:07:18.169Z,0.10
2023-11-12T11:09:46.770Z,0.10
2023-11-12T11:12:14.676Z,0.20
2023-11-12T11:14:42.149Z,0.15
2023-11-12T11:17:37.661Z,0.03
2023-11-12T11:20:13.302Z,0.55
2023-11-12T11:22:41.444Z,0.00
2023-11-12T11:25:23.579Z,0.43
2023-11-12T11:28:21.164Z,0.00
2023-11-12T11:31:12.390Z,0.40
2023-11-12T11:33:48.259Z,0.77
2023-11-12T11:36:17.762Z,0.45
2023-11-12T11:39:12.226Z,0.45
2023-11-12T11:41:49.231Z,0.00
2023-11-12T11:44:32.366Z,0.00
2023-11-12T11:47:05.282Z,0.10
2023-11-12T11:49:33.756Z,0.10
2023-11-12T11:52:01.688Z,0.10
2023-11-12T11:54:29.796Z,0.40
2023-11-12T11:56:58.549Z,1.08
2023-11-12T11:59:26.556Z,0.10
2023-11-12T12:02:00.565Z,0.20
2023-11-12T12:04:28.983Z,0.25
2023-11-12T12:07:00.054Z,0.22
2023-11-12T12:09:28.010Z,0.00
2023-11-12T12:11:56.688Z,0.20
2023-11-12T12:14:25.768Z,0.88
2023-11-12T12:16:53.522Z,0.00
2023-11-12T12:19:22.778Z,0.57
2023-11-12T12:21:51.931Z,0.20
2023-11-12T12:24:23.693Z,0.43
2023-11-12T12:26:52.042Z,0.00
2023-11-12T12:29:21.905Z,0.00
2023-11-12T12:31:50.273Z,0.03
2023-11-12T12:34:20.458Z,0.28
2023-11-12T12:37:09.185Z,0.00
2023-11-12T12:40:12.237Z,0.20
2023-11-12T12:42:40.173Z,0.10
2023-11-12T12:45:17.183Z,0.45
2023-11-12T12:47:45.878Z,0.00
2023-11-12T12:50:17.021Z,0.00
2023-11-12T12:52:46.492Z,0.10
2023-11-12T12:55:18.516Z,0.17
2023-11-12T12:57:51.672Z,0.20
2023-11-12T13:00:22.971Z,0.00
2023-11-12T13:02:53.177Z,0.10
2023-11-12T13:05:23.091Z,0.45
2023-11-12T13:07:58.060Z,0.10
2023-11-12T13:10:27.027Z,0.10
2023-11-12T13:12:57.331Z,0.00
2023-11-12T13:15:26.771Z,0.00
2023-11-12T13:17:55.322Z,0.20
2023-11-12T13:20:26.790Z,0.00
2023-11-12T13:22:56.456Z,0.00
2023-11-12T13:25:24.723Z,0.17
2023-11-12T13:27:54.695Z,0.13
2023-11-12T13:30:24.382Z,0.00
2023-11-12T13:32:52.483Z,0.03
2023-11-12T13:35:20.225Z,0.10
2023-11-12T13:37:48.168Z,0.00
2023-11-12T13:40:16.470Z,0.00
2023-11-12T13:42:45.055Z,0.00
2023-11-12T13:45:15.335Z,0.00
2023-11-12T13:47:43.521Z,0.88
2023-11-12T13:50:15.511Z,0.20
2023-11-12T13:52:45.222Z,0.00
2023-11-12T13:55:12.999Z,0.00
2023-11-12T13:57:40.541Z,0.00
2023-11-12T14:00:12.901Z,0.95
2023-11-12T14:02:42.035Z,0.10
2023-11-12T14:05:10.083Z,0.00
2023-11-12T14:07:40.931Z,0.08
2023-11-12T14:10:11.470Z,0.05
2023-11-12T14:12:40.287Z,0.00
2023-11-12T14:15:16.520Z,0.25
2023-11-12T14:17:45.212Z,0.93
2023-11-12T14:20:21.736Z,0.00
2023-11-12T14:22:52.299Z,0.05
2023-11-12T14:25:20.614Z,0.28
2023-11-12T14:27:49.798Z,0.10
2023-11-12T14:30:20.019Z,0.00
2023-11-12T14:32:48.652Z,0.00
2023-11-12T14:35:17.273Z,0.20
2023-11-12T14:37:45.393Z,0.20
2023-11-12T14:40:15.639Z,0.52
2023-11-12T14:42:43.832Z,0.52
2023-11-12T14:45:21.564Z,0.93
2023-11-12T14:48:02.627Z,1.67
2023-11-12T14:50:33.853Z,2.83
2023-11-12T14:53:01.370Z,1.37
2023-11-12T14:55:29.100Z,1.10
2023-11-12T14:57:58.269Z,0.73
2023-11-12T15:00:30.829Z,0.55
2023-11-12T15:03:01.553Z,0.45
2023-11-12T15:05:29.782Z,2.35
2023-11-12T15:07:58.339Z,2.30
2023-11-12T15:10:27.167Z,1.35
2023-11-12T15:12:55.334Z,0.70
2023-11-12T15:15:23.632Z,1.55
2023-11-12T15:17:53.424Z,0.25
2023-11-12T15:20:21.939Z,1.60
2023-11-12T15:22:52.021Z,0.75
2023-11-12T15:25:20.961Z,0.40
2023-11-12T15:27:52.713Z,0.43
2023-11-12T15:30:21.147Z,3.17
2023-11-12T15:32:49.287Z,0.45
2023-11-12T15:35:19.600Z,3.62
2023-11-12T15:37:51.082Z,0.70
2023-11-12T15:40:19.721Z,1.05
2023-11-12T15:42:51.228Z,0.40
2023-11-12T15:45:20.089Z,1.95
2023-11-12T15:47:49.064Z,0.93
2023-11-12T15:50:18.437Z,1.05
2023-11-12T15:52:47.190Z,2.20
2023-11-12T15:55:16.066Z,1.00
2023-11-12T15:57:45.436Z,4.68
2023-11-12T16:00:14.284Z,7.32
2023-11-12T16:02:42.611Z,6.22
2023-11-12T16:05:14.065Z,6.10
2023-11-12T16:07:43.619Z,7.12
2023-11-12T16:10:13.450Z,3.72
2023-11-12T16:12:42.633Z,3.10
2023-11-12T16:15:14.351Z,1.73
2023-11-12T16:17:51.625Z,0.82
2023-11-12T16:20:19.332Z,1.98
2023-11-12T16:22:47.786Z,2.15
2023-11-12T16:25:15.420Z,2.47
2023-11-12T16:27:43.626Z,2.00
2023-11-12T16:30:15.062Z,1.17
2023-11-12T16:32:45.633Z,1.15
2023-11-12T16:35:14.683Z,0.88
2023-11-12T16:37:50.267Z,2.12
2023-11-12T16:40:20.527Z,10.00
2023-11-12T16:42:49.998Z,2.65
2023-11-12T16:45:18.687Z,0.88
2023-11-12T16:47:46.911Z,1.70
2023-11-12T16:50:17.261Z,4.68
2023-11-12T16:52:45.368Z,1.65
2023-11-12T16:55:13.967Z,7.62
2023-11-12T16:57:41.767Z,2.28
2023-11-12T17:00:10.605Z,5.15
2023-11-12T17:02:39.312Z,1.80
2023-11-12T17:05:07.260Z,3.72
2023-11-12T17:07:35.111Z,2.55
2023-11-12T17:10:05.615Z,3.50
2023-11-12T17:12:33.986Z,3.03
2023-11-12T17:15:03.471Z,4.37
2023-11-12T17:17:33.211Z,1.27
2023-11-12T17:20:01.868Z,3.42
2023-11-12T17:22:30.701Z,6.03
2023-11-12T17:25:01.310Z,6.25
2023-11-12T17:30:00.288Z,2.42
2023-11-12T17:32:28.669Z,7.82
2023-11-12T17:34:56.171Z,9.57
2023-11-12T17:37:24.483Z,4.95
2023-11-12T17:39:57.758Z,13.40
2023-11-12T17:42:31.430Z,3.10
2023-11-12T17:44:59.159Z,4.82
2023-11-12T17:47:27.640Z,5.20
2023-11-12T17:49:58.140Z,5.05
2023-11-12T17:52:26.608Z,5.47
2023-11-12T17:54:58.577Z,3.65
2023-11-12T17:57:28.936Z,3.97
2023-11-12T17:59:56.933Z,12.52
2023-11-12T18:02:24.713Z,8.18
2023-11-12T18:04:52.942Z,6.70
2023-11-12T18:07:20.888Z,5.15
2023-11-12T18:09:48.963Z,6.60
2023-11-12T18:12:17.098Z,7.00
2023-11-12T18:14:45.021Z,6.22
2023-11-12T18:17:14.263Z,4.78
2023-11-12T18:19:42.373Z,14.75
2023-11-12T18:22:12.587Z,6.43
2023-11-12T18:24:40.301Z,6.05
2023-11-12T18:27:08.799Z,7.50
2023-11-12T18:29:37.410Z,3.75
2023-11-12T18:32:05.547Z,6.28
2023-11-12T18:34:34.826Z,5.10
2023-11-12T18:37:03.509Z,7.65
2023-11-12T18:39:32.116Z,4.65
2023-11-12T18:42:00.908Z,16.52
2023-11-12T18:44:29.367Z,8.82
2023-11-12T18:47:01.641Z,7.03
2023-11-12T18:52:00.689Z,3.50
2023-11-12T18:54:29.283Z,3.30
2023-11-12T18:57:05.672Z,1.98
2023-11-12T18:59:33.581Z,3.20
2023-11-12T19:02:02.445Z,4.12
2023-11-12T19:04:31.266Z,1.98
2023-11-12T19:06:59.287Z,2.33
2023-11-12T19:09:27.904Z,9.85
2023-11-12T19:11:55.894Z,2.03
2023-11-12T19:14:23.860Z,6.45
2023-11-12T19:16:54.944Z,2.22
2023-11-12T19:19:25.982Z,4.68
2023-11-12T19:22:00.861Z,3.58
2023-11-12T19:24:33.072Z,5.75
2023-11-12T19:27:01.790Z,5.80
2023-11-12T19:29:29.728Z,4.15
2023-11-12T19:31:57.940Z,6.28
2023-11-12T19:34:26.779Z,2.33
2023-11-12T19:36:55.314Z,2.78
2023-11-12T19:39:34.677Z,3.40
2023-11-12T19:42:05.790Z,1.87
2023-11-12T19:44:37.890Z,4.47
2023-11-12T19:47:06.494Z,1.83
2023-11-12T19:49:34.454Z,5.00
2023-11-12T19:52:02.230Z,6.75
2023-11-12T19:54:30.696Z,2.10
2023-11-12T19:56:58.601Z,3.33
2023-11-12T19:59:26.456Z,6.90
2023-11-12T20:01:55.186Z,3.67
2023-11-12T20:04:24.735Z,5.93
2023-11-12T20:06:57.084Z,3.40
2023-11-12T20:09:28.248Z,1.12
2023-11-12T20:11:55.875Z,4.25
2023-11-12T20:14:23.686Z,2.87
2023-11-12T20:16:59.227Z,4.50
2023-11-12T20:19:28.810Z,3.30
2023-11-12T20:21:59.667Z,3.85
2023-11-12T20:24:27.685Z,3.20
2023-11-12T20:26:58.211Z,1.30
2023-11-12T20:29:26.509Z,3.10
2023-11-12T20:31:57.886Z,3.60
2023-11-12T20:34:25.933Z,0.45
2023-11-12T20:36:53.687Z,1.45
2023-11-12T20:39:21.660Z,4.28
2023-11-12T20:41:52.186Z,2.03
2023-11-12T20:44:21.030Z,5.87
2023-11-12T20:46:49.457Z,4.97
2023-11-12T20:49:18.480Z,5.90
2023-11-12T20:51:47.703Z,4.87
2023-11-12T20:54:19.455Z,3.42
2023-11-12T20:56:47.098Z,1.12
2023-11-12T20:59:14.840Z,3.92
2023-11-12T21:01:44.106Z,3.35
2023-11-12T21:04:13.493Z,5.93
2023-11-12T21:06:42.115Z,2.92
2023-11-12T21:09:10.318Z,1.92
2023-11-12T21:11:46.885Z,2.05
2023-11-12T21:14:17.167Z,3.10
2023-11-12T21:16:45.126Z,1.92
2023-11-12T21:19:13.400Z,4.65
2023-11-12T21:21:41.472Z,5.53
2023-11-12T21:24:09.995Z,6.97
2023-11-12T21:26:40.668Z,4.95
2023-11-12T21:29:10.487Z,5.47
2023-11-12T21:31:39.319Z,14.48
2023-11-12T21:34:07.032Z,0.65
2023-11-12T21:36:35.052Z,2.30
2023-11-12T21:39:02.858Z,2.08
2023-11-12T21:41:31.057Z,2.40
2023-11-12T21:43:59.125Z,3.20
2023-11-12T21:46:28.219Z,0.95
2023-11-12T21:48:56.344Z,2.42
2023-11-12T21:51:24.417Z,3.20
2023-11-12T21:53:51.959Z,2.47
2023-11-12T21:56:19.741Z,2.42
2023-11-12T21:58:49.966Z,5.37
2023-11-12T22:01:17.785Z,1.17
2023-11-12T22:03:45.886Z,4.68
2023-11-12T22:06:13.816Z,0.37
2023-11-12T22:08:41.341Z,7.43
2023-11-12T22:11:09.912Z,2.97
2023-11-12T22:13:37.674Z,1.02
2023-11-12T22:16:05.917Z,2.53
2023-11-12T22:18:36.771Z,4.78
2023-11-12T22:21:06.654Z,3.62
2023-11-12T22:23:34.607Z,4.72
2023-11-12T22:26:03.696Z,1.87
2023-11-12T22:28:32.078Z,0.88
2023-11-12T22:31:00.167Z,3.67
2023-11-12T22:33:27.750Z,2.25
2023-11-12T22:35:55.421Z,2.55
2023-11-12T22:38:23.413Z,2.92
2023-11-12T22:40:51.091Z,2.80
2023-11-12T22:43:18.795Z,1.62
2023-11-12T22:45:46.947Z,2.92
2023-11-12T22:48:14.635Z,2.15
2023-11-12T22:50:42.204Z,2.70
2023-11-12T22:53:10.362Z,5.05
2023-11-12T22:55:37.915Z,2.87
2023-11-12T22:58:06.624Z,4.70
2023-11-12T23:00:46.716Z,5.22
2023-11-12T23:03:17.213Z,4.22
2023-11-12T23:05:46.850Z,1.52
2023-11-12T23:08:14.844Z,1.15
2023-11-12T23:10:44.060Z,3.80
2023-11-12T23:13:21.625Z,3.00
2023-11-12T23:15:49.317Z,5.12
2023-11-12T23:18:19.077Z,6.32
2023-11-12T23:20:52.455Z,5.20
2023-11-12T23:23:27.146Z,5.57
2023-11-12T23:25:54.647Z,2.58
2023-11-12T23:28:22.753Z,5.25
2023-11-12T23:30:51.141Z,5.05
2023-11-12T23:33:18.923Z,6.70
2023-11-12T23:35:47.614Z,3.87
2023-11-12T23:38:15.867Z,7.35
2023-11-12T23:40:43.490Z,10.73
2023-11-12T23:43:11.464Z,6.07
2023-11-12T23:45:39.949Z,6.93
2023-11-12T23:48:08.342Z,3.17
2023-11-12T23:50:37.134Z,3.15
2023-11-12T23:53:05.872Z,9.98
2023-11-12T23:55:33.843Z,5.97
2023-11-12T23:58:01.904Z,5.65
